Time;durP1;ratioP1;P1;durP2;ratioP2;P2;SDS_P1;SDS_P2;PMS_P1;PMS_P2;Temp;Humidity;BMP_temperature;BMP_pressure;BME280_temperature;BME280_humidity;BME280_pressure;Samples;Min_cycle;Max_cycle;Signal;HPM_P1;HPM_P2
2021/09/11 05:34:29;;;;;;;12.18;5.88;;;12.20;99.90;;;;;;4726589;30;20150;-83
2021/09/11 05:36:56;;;;;;;12.20;5.47;;;12.20;99.90;;;;;;4784035;29;20114;-80
2021/09/11 13:10:19;;;;;;;3.60;0.87;;;23.30;99.90;;;;;;4775001;24;20115;-84
2021/09/11 13:13:57;;;;;;;;;;;;;;;;;;;;;
2021/09/11 13:34:15;;;;;;;3.47;1.08;;;23.20;99.90;;;;;;5032028;28;20528;-79
2021/09/11 14:30:18;;;;;;;1.85;0.90;;;23.10;99.90;;;;;;6086257;23;20380;-80
2021/09/11 14:32:48;;;;;;;1.77;0.70;;;23.20;99.90;;;;;;6011409;23;20345;-80
2021/09/11 14:35:16;;;;;;;1.52;0.63;;;23.20;99.90;;;;;;6064702;23;20029;-81
2021/09/11 14:56:56;;;;;;;3.22;1.13;;;23.50;99.90;;;;;;6094641;23;20096;-81
2021/09/11 14:59:24;;;;;;;4.88;0.80;;;23.50;99.90;;;;;;6053727;23;20089;-81
2021/09/11 15:02:00;;;;;;;1.88;0.68;;;23.50;99.90;;;;;;6057697;23;20046;-79
2021/09/11 15:04:32;;;;;;;2.42;0.73;;;23.50;99.90;;;;;;6055221;23;20503;-78
2021/09/11 15:06:59;;;;;;;3.15;0.80;;;23.40;99.90;;;;;;6071422;23;20029;-79
2021/09/11 15:09:27;;;;;;;1.70;0.70;;;23.40;99.90;;;;;;6070365;23;20023;-80
2021/09/11 15:11:54;;;;;;;2.55;0.88;;;23.40;99.90;;;;;;6071014;23;20323;-79
2021/09/11 15:14:21;;;;;;;4.63;0.90;;;23.30;99.90;;;;;;6069315;23;20030;-79
2021/09/11 15:16:48;;;;;;;3.67;0.90;;;23.30;99.90;;;;;;6071683;23;20018;-79
2021/09/11 15:19:15;;;;;;;2.30;0.85;;;23.30;99.90;;;;;;6070671;23;20336;-77
2021/09/11 15:21:42;;;;;;;2.28;1.10;;;23.30;99.90;;;;;;6071430;23;20041;-79
2021/09/11 15:24:09;;;;;;;2.25;0.85;;;23.20;99.90;;;;;;6070400;23;20026;-78
2021/09/11 15:26:36;;;;;;;2.10;0.70;;;23.20;99.90;;;;;;6069324;23;20019;-77
2021/09/11 15:29:03;;;;;;;3.10;0.90;;;23.20;99.90;;;;;;6068660;23;20022;-79
2021/09/11 15:31:30;;;;;;;4.20;0.90;;;23.20;99.90;;;;;;6067829;23;20023;-78
2021/09/11 15:33:57;;;;;;;2.80;0.93;;;23.20;99.90;;;;;;6069102;23;20454;-77
2021/09/11 15:36:24;;;;;;;1.35;0.70;;;23.10;99.90;;;;;;6068021;23;20030;-82
2021/09/11 15:38:53;;;;;;;2.65;0.93;;;23.10;99.90;;;;;;6069290;23;20046;-80
2021/09/11 15:41:20;;;;;;;2.58;0.98;;;23.10;99.90;;;;;;6069245;23;20018;-80
2021/09/11 15:43:47;;;;;;;3.47;0.85;;;23.00;99.90;;;;;;6071105;23;20025;-79
2021/09/11 15:46:14;;;;;;;1.55;0.63;;;23.00;99.90;;;;;;6095645;23;20030;-80
2021/09/11 15:48:42;;;;;;;1.85;0.63;;;23.00;99.90;;;;;;6071176;23;20086;-80
2021/09/11 15:51:09;;;;;;;1.67;0.82;;;22.90;99.90;;;;;;6070414;23;20018;-80
2021/09/11 15:53:36;;;;;;;1.77;0.70;;;23.00;99.90;;;;;;6071167;23;20431;-79
2021/09/11 15:56:03;;;;;;;4.55;1.10;;;23.00;99.90;;;;;;6071022;23;20022;-80
2021/09/11 15:58:30;;;;;;;3.47;1.30;;;23.10;99.90;;;;;;6094625;23;20431;-77
2021/09/11 16:00:58;;;;;;;2.53;0.80;;;23.10;99.90;;;;;;6071193;23;20029;-80
2021/09/11 16:03:25;;;;;;;5.53;1.13;;;23.10;99.90;;;;;;6070652;23;20045;-80
2021/09/11 16:05:53;;;;;;;1.88;0.80;;;23.10;99.90;;;;;;6071170;23;20023;-80
2021/09/11 16:08:20;;;;;;;1.95;0.60;;;23.10;99.90;;;;;;6070248;23;20018;-78
2021/09/11 16:10:47;;;;;;;4.43;1.20;;;23.20;99.90;;;;;;6071385;23;20042;-79
2021/09/11 16:13:14;;;;;;;1.88;0.70;;;23.10;99.90;;;;;;6070140;23;20030;-80
2021/09/11 16:15:41;;;;;;;3.75;0.80;;;23.10;99.90;;;;;;6070606;23;20018;-78
2021/09/11 16:18:08;;;;;;;5.60;1.23;;;23.10;99.90;;;;;;6093731;23;20022;-78
2021/09/11 16:20:35;;;;;;;3.80;0.75;;;23.10;99.90;;;;;;6071010;23;20497;-81
2021/09/11 16:23:02;;;;;;;4.22;1.02;;;23.10;99.90;;;;;;6070603;23;20026;-81
2021/09/11 16:25:29;;;;;;;5.82;1.13;;;23.20;99.90;;;;;;6070020;23;20510;-81
2021/09/11 16:28:38;;;;;;;;;;;;;;;;;;;;;
2021/09/11 16:34:03;;;;;;;3.70;0.90;;;22.90;99.90;;;;;;6022155;23;20106;-77
2021/09/11 16:36:30;;;;;;;3.70;0.90;;;22.90;99.90;;;;;;6036391;23;20019;-77
2021/09/11 16:38:57;;;;;;;2.83;0.75;;;22.80;99.90;;;;;;6036801;23;20023;-81
2021/09/11 16:41:24;;;;;;;3.15;0.70;;;22.70;99.90;;;;;;6035492;23;20081;-80
2021/09/11 16:43:53;;;;;;;4.10;1.00;;;22.60;99.90;;;;;;6037132;23;20026;-81
2021/09/11 16:46:21;;;;;;;2.53;0.73;;;22.50;99.90;;;;;;6035235;23;20515;-78
2021/09/11 16:48:51;;;;;;;3.63;0.95;;;22.50;99.90;;;;;;6034700;23;20051;-79
2021/09/11 16:51:18;;;;;;;5.82;0.93;;;22.30;99.90;;;;;;6033369;23;20030;-80
2021/09/11 16:53:46;;;;;;;2.00;0.80;;;22.20;99.90;;;;;;6034134;23;20027;-79
2021/09/11 16:56:15;;;;;;;5.35;1.00;;;22.10;99.90;;;;;;6031706;23;20023;-79
2021/09/11 16:58:42;;;;;;;2.17;1.10;;;22.10;99.90;;;;;;6034333;23;20019;-80
2021/09/11 17:01:09;;;;;;;1.25;0.70;;;22.00;99.90;;;;;;6033928;23;20025;-78
2021/09/11 17:03:37;;;;;;;2.45;0.70;;;22.00;99.90;;;;;;6034333;23;20023;-79
2021/09/11 17:06:04;;;;;;;2.35;1.08;;;21.90;99.90;;;;;;6033752;23;20019;-80
2021/09/11 17:08:32;;;;;;;4.28;0.82;;;21.80;99.90;;;;;;6033887;23;20332;-81
2021/09/11 17:10:59;;;;;;;1.60;0.75;;;21.80;99.90;;;;;;6034251;23;20019;-77
2021/09/11 17:13:26;;;;;;;1.58;0.85;;;21.70;99.90;;;;;;6033000;23;20023;-78
2021/09/11 17:15:53;;;;;;;1.42;0.73;;;21.60;99.90;;;;;;6034080;23;20054;-78
2021/09/11 17:18:20;;;;;;;2.25;0.75;;;21.50;99.90;;;;;;6032841;23;20019;-81
2021/09/11 17:20:48;;;;;;;2.80;0.90;;;21.50;99.90;;;;;;6034092;23;20027;-80
2021/09/11 17:23:15;;;;;;;1.38;0.60;;;21.40;99.90;;;;;;6009922;23;20027;-81
2021/09/11 17:25:44;;;;;;;1.30;0.88;;;21.40;99.90;;;;;;6034576;23;20542;-80
2021/09/11 17:28:11;;;;;;;2.45;0.85;;;21.40;99.90;;;;;;6032705;23;20336;-80
2021/09/11 17:30:38;;;;;;;3.60;0.75;;;21.30;99.90;;;;;;6034201;23;20027;-80
2021/09/11 17:33:05;;;;;;;2.15;0.90;;;21.20;99.90;;;;;;6032856;23;20456;-79
2021/09/11 17:35:33;;;;;;;1.80;0.85;;;21.20;99.90;;;;;;6034047;23;20043;-79
2021/09/11 17:38:02;;;;;;;3.92;1.02;;;21.10;99.90;;;;;;6033481;23;20051;-80
2021/09/11 17:40:32;;;;;;;4.10;0.98;;;21.10;99.90;;;;;;6032910;23;20035;-79
2021/09/11 17:43:00;;;;;;;3.17;0.90;;;21.00;99.90;;;;;;6032929;23;20401;-77
2021/09/11 17:45:27;;;;;;;3.00;1.00;;;21.00;99.90;;;;;;6030497;23;20023;-77
2021/09/11 17:47:55;;;;;;;2.15;0.70;;;20.90;99.90;;;;;;6033835;23;20016;-78
2021/09/11 17:50:22;;;;;;;3.53;1.00;;;20.90;99.90;;;;;;6033215;23;20023;-80
2021/09/11 17:52:49;;;;;;;2.78;1.20;;;20.80;99.90;;;;;;6033873;23;20031;-80
2021/09/11 17:55:16;;;;;;;1.77;0.70;;;20.70;99.90;;;;;;6033138;23;20023;-78
2021/09/11 17:57:44;;;;;;;3.53;1.00;;;20.70;99.90;;;;;;6033275;23;20028;-78
2021/09/11 18:00:12;;;;;;;1.95;0.88;;;20.60;99.90;;;;;;6032506;23;20027;-80
2021/09/11 18:02:39;;;;;;;5.50;1.20;;;20.50;99.90;;;;;;6033734;23;20024;-79
2021/09/11 18:05:07;;;;;;;5.27;1.20;;;20.50;99.90;;;;;;6032919;23;20053;-79
2021/09/11 18:07:34;;;;;;;3.78;1.05;;;20.50;99.90;;;;;;6033539;23;20358;-76
2021/09/11 18:10:01;;;;;;;3.33;1.27;;;20.50;99.90;;;;;;6033893;23;20051;-79
2021/09/11 18:12:29;;;;;;;4.28;1.33;;;20.40;99.90;;;;;;6032893;23;20035;-77
2021/09/11 18:14:56;;;;;;;3.95;1.20;;;20.30;99.90;;;;;;6033349;23;20023;-74
2021/09/11 18:17:23;;;;;;;2.92;1.13;;;20.20;99.90;;;;;;6033139;23;20042;-74
2021/09/11 18:19:50;;;;;;;2.80;0.90;;;20.20;99.90;;;;;;6033882;23;20023;-75
2021/09/11 18:22:17;;;;;;;5.10;1.15;;;20.10;99.90;;;;;;6031509;23;20043;-75
2021/09/11 18:24:44;;;;;;;2.60;1.00;;;20.00;99.90;;;;;;6034883;23;20023;-75
2021/09/11 18:27:13;;;;;;;2.85;1.00;;;20.00;99.90;;;;;;6032579;23;20055;-74
2021/09/11 18:29:43;;;;;;;3.95;1.00;;;19.90;99.90;;;;;;6033541;23;20027;-75
2021/09/11 18:32:10;;;;;;;3.85;1.10;;;19.90;99.90;;;;;;6034746;23;20103;-75
2021/09/11 18:34:37;;;;;;;5.32;1.10;;;19.80;99.90;;;;;;6035591;23;20031;-75
2021/09/11 18:37:04;;;;;;;4.00;1.00;;;19.70;99.90;;;;;;6034531;23;20019;-75
2021/09/11 18:39:31;;;;;;;3.05;1.00;;;19.70;99.90;;;;;;6035458;23;20433;-75
2021/09/11 18:41:58;;;;;;;4.57;1.30;;;19.60;99.90;;;;;;6034785;23;20023;-75
2021/09/11 18:44:29;;;;;;;3.30;1.23;;;19.50;99.90;;;;;;6034614;23;20023;-74
2021/09/11 18:46:58;;;;;;;3.75;1.00;;;19.50;99.90;;;;;;6035717;23;20034;-75
2021/09/11 18:49:25;;;;;;;4.13;1.10;;;19.40;99.90;;;;;;6035179;23;20024;-75
2021/09/11 18:51:52;;;;;;;4.30;1.10;;;19.30;99.90;;;;;;6035476;23;20020;-74
2021/09/11 18:54:19;;;;;;;2.88;1.30;;;19.30;99.90;;;;;;6032771;23;20055;-74
2021/09/11 18:56:46;;;;;;;4.40;1.08;;;19.20;99.90;;;;;;6035000;23;20024;-74
2021/09/11 18:59:13;;;;;;;3.35;1.20;;;19.10;99.90;;;;;;6036709;23;20020;-74
2021/09/11 19:01:40;;;;;;;4.55;1.30;;;19.00;99.90;;;;;;6035848;23;20027;-74
2021/09/11 19:04:07;;;;;;;3.40;1.08;;;19.00;99.90;;;;;;6035168;23;20023;-74
2021/09/11 19:06:35;;;;;;;4.25;1.10;;;18.90;99.90;;;;;;6035505;23;20027;-75
2021/09/11 19:09:02;;;;;;;4.50;1.27;;;18.90;99.90;;;;;;6035652;23;20019;-75
2021/09/11 19:11:29;;;;;;;5.63;1.23;;;18.90;99.90;;;;;;6034831;23;20027;-75
2021/09/11 19:13:56;;;;;;;4.13;1.40;;;18.80;99.90;;;;;;6035439;23;20031;-75
2021/09/11 19:16:24;;;;;;;3.22;1.02;;;18.80;99.90;;;;;;6034943;23;20045;-75
2021/09/11 19:18:51;;;;;;;5.22;1.20;;;18.70;99.90;;;;;;6035631;23;20019;-75
2021/09/11 19:21:18;;;;;;;3.15;1.27;;;18.70;99.90;;;;;;6035141;23;20047;-76
2021/09/11 19:23:44;;;;;;;3.75;1.38;;;18.70;99.90;;;;;;6035158;23;20023;-74
2021/09/11 19:26:15;;;;;;;3.42;1.20;;;18.60;99.90;;;;;;6034973;23;20023;-75
2021/09/11 19:28:42;;;;;;;2.83;1.30;;;18.60;99.90;;;;;;6035729;23;20031;-75
2021/09/11 19:31:09;;;;;;;4.80;1.30;;;18.60;99.90;;;;;;6034888;23;20030;-75
2021/09/11 19:33:36;;;;;;;5.20;1.50;;;18.50;99.90;;;;;;6035247;23;20079;-75
2021/09/11 19:36:03;;;;;;;4.78;1.55;;;18.50;99.90;;;;;;6035541;23;20452;-75
2021/09/11 19:38:32;;;;;;;7.60;1.60;;;18.40;99.90;;;;;;6034985;23;20106;-74
2021/09/11 19:40:59;;;;;;;3.22;1.48;;;18.50;99.90;;;;;;6035397;23;20023;-77
2021/09/11 19:43:28;;;;;;;4.07;1.33;;;18.50;99.90;;;;;;6034190;23;20381;-77
2021/09/11 19:45:55;;;;;;;5.57;1.30;;;18.40;99.90;;;;;;6035625;23;20035;-76
2021/09/11 19:48:22;;;;;;;3.78;1.45;;;18.40;99.90;;;;;;6034627;23;20019;-76
2021/09/11 19:50:49;;;;;;;4.07;1.38;;;18.40;99.90;;;;;;6035571;23;20023;-76
2021/09/11 19:53:16;;;;;;;3.42;1.20;;;18.40;99.90;;;;;;6034468;23;20539;-77
2021/09/11 19:55:42;;;;;;;7.18;1.33;;;18.40;99.90;;;;;;6036734;23;20082;-77
2021/09/11 19:58:09;;;;;;;7.18;1.73;;;18.40;99.90;;;;;;6034006;23;20034;-76
2021/09/11 20:00:36;;;;;;;2.83;1.30;;;18.30;99.90;;;;;;6034736;23;20029;-76
2021/09/11 20:03:04;;;;;;;4.43;1.60;;;18.30;99.90;;;;;;6032287;23;20023;-76
2021/09/11 20:05:31;;;;;;;4.55;1.80;;;18.20;99.90;;;;;;6034191;23;20440;-77
2021/09/11 20:07:58;;;;;;;4.80;1.80;;;18.20;99.90;;;;;;6034676;23;20456;-76
2021/09/11 20:10:28;;;;;;;4.38;1.50;;;18.10;99.90;;;;;;6034355;23;20515;-77
2021/09/11 20:12:55;;;;;;;5.88;1.70;;;18.00;99.90;;;;;;6034582;23;20047;-74
2021/09/11 20:15:22;;;;;;;4.45;1.70;;;17.90;99.90;;;;;;6033699;23;20019;-74
2021/09/11 20:17:49;;;;;;;3.42;1.55;;;17.80;99.90;;;;;;6034678;23;20069;-75
2021/09/11 20:20:19;;;;;;;4.93;1.70;;;17.80;99.90;;;;;;6033820;23;20075;-75
2021/09/11 20:22:46;;;;;;;8.40;1.70;;;17.70;99.90;;;;;;6034193;23;20023;-75
2021/09/11 20:25:13;;;;;;;3.47;1.80;;;17.60;99.90;;;;;;6033923;23;20027;-75
2021/09/11 20:27:40;;;;;;;4.75;1.70;;;17.60;99.90;;;;;;6034543;23;20023;-75
2021/09/11 20:30:08;;;;;;;6.15;1.83;;;17.50;99.90;;;;;;6034338;23;20031;-75
2021/09/11 20:32:35;;;;;;;4.45;1.73;;;17.40;99.90;;;;;;6034175;23;20035;-75
2021/09/11 20:35:02;;;;;;;7.03;2.00;;;17.30;99.90;;;;;;6034993;23;20031;-75
2021/09/11 20:37:29;;;;;;;3.88;2.03;;;17.20;99.90;;;;;;6033771;23;20038;-75
2021/09/11 20:39:56;;;;;;;5.03;1.77;;;17.20;99.90;;;;;;6034464;23;20019;-75
2021/09/11 20:42:23;;;;;;;5.88;1.88;;;17.10;99.90;;;;;;6035192;23;20134;-76
2021/09/11 20:44:50;;;;;;;7.35;1.80;;;17.10;99.90;;;;;;6034305;23;20020;-75
2021/09/11 20:47:18;;;;;;;5.00;1.70;;;17.00;99.90;;;;;;6033589;23;20019;-75
2021/09/11 20:49:44;;;;;;;6.63;1.80;;;17.00;99.90;;;;;;6036463;23;20079;-76
2021/09/11 20:52:11;;;;;;;7.18;1.92;;;17.00;99.90;;;;;;6034462;23;20078;-75
2021/09/11 20:54:39;;;;;;;9.38;2.03;;;16.90;99.90;;;;;;6034462;23;20094;-75
2021/09/11 20:57:08;;;;;;;7.78;1.92;;;16.90;99.90;;;;;;6033872;23;20031;-75
2021/09/11 20:59:35;;;;;;;6.00;2.15;;;16.90;99.90;;;;;;6034240;23;20035;-75
2021/09/11 21:02:02;;;;;;;5.35;1.70;;;16.90;99.90;;;;;;6034687;23;20031;-75
2021/09/11 21:04:29;;;;;;;3.65;1.92;;;16.80;99.90;;;;;;6033467;23;20035;-74
2021/09/11 21:06:56;;;;;;;7.40;1.80;;;16.80;99.90;;;;;;6033985;23;20015;-75
2021/09/11 21:09:23;;;;;;;9.40;1.98;;;16.80;99.90;;;;;;6033185;23;20039;-75
2021/09/11 21:11:50;;;;;;;4.40;1.85;;;16.80;99.90;;;;;;6037449;23;20472;-76
2021/09/11 21:14:17;;;;;;;4.28;1.60;;;16.70;99.90;;;;;;6035473;23;20508;-76
2021/09/11 21:16:47;;;;;;;6.88;1.83;;;16.80;99.90;;;;;;6036852;23;20022;-77
2021/09/11 21:19:14;;;;;;;3.80;1.85;;;16.70;99.90;;;;;;6036050;23;20432;-75
2021/09/11 21:21:41;;;;;;;5.03;1.80;;;16.80;99.90;;;;;;6035853;23;20102;-75
2021/09/11 21:24:11;;;;;;;5.90;1.52;;;16.80;99.90;;;;;;6035466;23;20030;-76
2021/09/11 21:26:39;;;;;;;5.35;1.30;;;16.80;99.90;;;;;;6036252;23;20019;-75
2021/09/11 21:29:07;;;;;;;3.83;1.52;;;16.80;99.90;;;;;;6035479;23;20030;-75
2021/09/11 21:31:34;;;;;;;4.82;1.58;;;16.80;99.90;;;;;;6036437;23;20022;-75
2021/09/11 21:34:01;;;;;;;4.28;1.58;;;16.80;99.90;;;;;;6036103;23;20050;-75
2021/09/11 21:36:28;;;;;;;4.07;1.50;;;16.80;99.90;;;;;;6035401;23;20030;-75
2021/09/11 21:38:55;;;;;;;3.20;1.70;;;16.80;99.90;;;;;;6036291;23;20310;-75
2021/09/11 21:41:22;;;;;;;3.90;1.40;;;16.90;99.90;;;;;;6035190;23;20051;-75
2021/09/11 21:43:49;;;;;;;3.60;1.33;;;16.90;99.90;;;;;;6036254;23;20023;-75
2021/09/11 21:46:19;;;;;;;2.72;1.33;;;16.90;99.90;;;;;;6035289;23;20023;-75
2021/09/11 21:48:46;;;;;;;4.03;1.45;;;16.90;99.90;;;;;;6012942;23;20321;-75
2021/09/11 21:51:14;;;;;;;4.38;1.30;;;16.90;99.90;;;;;;6035785;23;20126;-74
2021/09/11 21:53:41;;;;;;;2.85;1.63;;;17.00;99.90;;;;;;6035925;23;20034;-75
2021/09/11 21:56:08;;;;;;;5.60;1.88;;;16.90;99.90;;;;;;6035626;23;20033;-75
2021/09/11 21:58:35;;;;;;;2.97;1.40;;;17.00;99.90;;;;;;6036542;23;20087;-75
2021/09/11 22:01:03;;;;;;;2.70;1.25;;;17.00;99.90;;;;;;6036183;23;20019;-75
2021/09/11 22:03:32;;;;;;;2.80;1.60;;;17.00;99.90;;;;;;6035431;23;20034;-75
2021/09/11 22:06:10;;;;;;;4.15;1.42;;;17.00;99.90;;;;;;6037789;23;20035;-75
2021/09/11 22:08:37;;;;;;;2.83;1.33;;;17.00;99.90;;;;;;6037854;23;20083;-74
2021/09/11 22:11:09;;;;;;;6.68;2.03;;;17.00;99.90;;;;;;6037744;23;20310;-75
2021/09/11 22:13:37;;;;;;;4.35;1.45;;;17.00;99.90;;;;;;6039782;23;20023;-74
2021/09/11 22:16:06;;;;;;;2.03;1.45;;;17.00;99.90;;;;;;6037841;23;20078;-75
2021/09/11 22:18:33;;;;;;;5.57;1.92;;;17.00;99.90;;;;;;6038423;23;20030;-75
2021/09/11 22:21:02;;;;;;;5.00;1.73;;;17.00;99.90;;;;;;6038194;23;20027;-75
2021/09/11 22:23:30;;;;;;;4.78;1.77;;;17.00;99.90;;;;;;6037457;23;20031;-75
2021/09/11 22:25:58;;;;;;;5.43;2.03;;;16.90;99.90;;;;;;6038647;23;20023;-75
2021/09/11 22:28:25;;;;;;;5.32;2.00;;;16.90;99.90;;;;;;6037799;23;20019;-75
2021/09/11 22:30:52;;;;;;;4.25;2.00;;;16.90;99.90;;;;;;6038271;23;20050;-74
2021/09/11 22:33:19;;;;;;;3.97;2.13;;;16.90;99.90;;;;;;6037367;23;20028;-77
2021/09/11 22:35:47;;;;;;;5.45;2.10;;;16.90;99.90;;;;;;6038607;23;20019;-74
2021/09/11 22:38:14;;;;;;;6.43;2.30;;;16.90;99.90;;;;;;6037392;23;20034;-75
2021/09/11 22:40:41;;;;;;;4.10;2.25;;;16.80;99.90;;;;;;6038376;23;20034;-75
2021/09/11 22:43:08;;;;;;;6.60;2.20;;;16.80;99.90;;;;;;6037048;23;20028;-74
2021/09/11 22:45:35;;;;;;;4.25;1.90;;;16.80;99.90;;;;;;6037433;23;20027;-75
2021/09/11 22:48:03;;;;;;;6.07;2.60;;;16.70;99.90;;;;;;6014658;23;20023;-75
2021/09/11 22:50:30;;;;;;;6.35;2.35;;;16.80;99.90;;;;;;6037352;23;20340;-77
2021/09/11 22:52:56;;;;;;;5.38;2.60;;;16.70;99.90;;;;;;6038207;23;20024;-74
2021/09/11 22:55:23;;;;;;;3.65;3.30;;;16.60;99.90;;;;;;6037464;23;20023;-77
2021/09/11 22:57:50;;;;;;;5.63;2.60;;;16.60;99.90;;;;;;6038154;23;20023;-74
2021/09/11 23:00:18;;;;;;;7.00;2.80;;;16.60;99.90;;;;;;6037106;23;20026;-74
2021/09/11 23:02:45;;;;;;;4.55;2.97;;;16.60;99.90;;;;;;6038227;23;20501;-74
2021/09/11 23:05:12;;;;;;;7.47;2.63;;;16.60;99.90;;;;;;6036683;23;20094;-76
2021/09/11 23:07:40;;;;;;;4.38;2.90;;;16.50;99.90;;;;;;6038320;23;20321;-77
2021/09/11 23:10:07;;;;;;;7.20;2.72;;;16.50;99.90;;;;;;6037466;23;20019;-76
2021/09/11 23:12:34;;;;;;;4.78;2.90;;;16.40;99.90;;;;;;6037964;23;20026;-77
2021/09/11 23:15:01;;;;;;;5.57;3.28;;;16.40;99.90;;;;;;6037735;23;20023;-77
2021/09/11 23:17:28;;;;;;;5.80;3.20;;;16.40;99.90;;;;;;6037019;23;20038;-77
2021/09/11 23:19:56;;;;;;;6.13;2.80;;;16.30;99.90;;;;;;6038302;23;20019;-77
2021/09/11 23:22:24;;;;;;;4.53;2.90;;;16.30;99.90;;;;;;6037123;23;20027;-77
2021/09/11 23:24:51;;;;;;;4.70;2.75;;;16.30;99.90;;;;;;6037748;23;20440;-77
2021/09/11 23:27:18;;;;;;;7.20;2.78;;;16.20;99.90;;;;;;6037317;23;20310;-76
2021/09/11 23:29:45;;;;;;;4.03;2.45;;;16.20;99.90;;;;;;6038020;23;20019;-77
2021/09/11 23:32:12;;;;;;;3.58;2.28;;;16.10;99.90;;;;;;6027612;23;20027;-77
2021/09/11 23:34:41;;;;;;;5.32;2.58;;;16.10;99.90;;;;;;6038006;23;20467;-77
2021/09/11 23:37:08;;;;;;;5.85;2.72;;;16.10;99.90;;;;;;6037062;23;20046;-76
2021/09/11 23:39:35;;;;;;;3.70;2.38;;;16.00;99.90;;;;;;6037714;23;20083;-77
2021/09/11 23:42:02;;;;;;;4.10;2.72;;;16.00;99.90;;;;;;6037526;23;20019;-77
2021/09/11 23:44:29;;;;;;;6.22;2.55;;;16.00;99.90;;;;;;6037058;23;20050;-77
2021/09/11 23:46:56;;;;;;;5.50;2.75;;;16.00;99.90;;;;;;6037467;23;20019;-77
2021/09/11 23:49:23;;;;;;;5.78;2.60;;;16.00;99.90;;;;;;6037130;23;20058;-77
2021/09/11 23:51:49;;;;;;;3.13;2.10;;;16.00;99.90;;;;;;6037790;23;20027;-77
2021/09/11 23:54:16;;;;;;;4.38;2.55;;;15.90;99.90;;;;;;6037007;23;20023;-76
2021/09/11 23:56:43;;;;;;;4.13;2.30;;;15.90;99.90;;;;;;6037706;23;20079;-76
2021/09/11 23:59:10;;;;;;;4.25;2.40;;;15.90;99.90;;;;;;6036633;23;20026;-77
